sensor_id;sensor_type;location;lat;lon;timestamp;pressure;altitude;pressure_sealevel;temperature;humidity
31595;BME280;18200;48.726;8.892;2023-04-07T00:00:53;96733.84;;;20.63;36.42
31595;BME280;18200;48.726;8.892;2023-04-07T00:04:54;96736.44;;;20.07;37.50
31595;BME280;18200;48.726;8.892;2023-04-07T00:08:56;96734.97;;;20.46;36.96
31595;BME280;18200;48.726;8.892;2023-04-07T00:12:57;96727.25;;;20.80;35.72
31595;BME280;18200;48.726;8.892;2023-04-07T00:16:57;96732.53;;;20.08;35.96
31595;BME280;18200;48.726;8.892;2023-04-07T00:20:57;96727.16;;;19.59;37.28
31595;BME280;18200;48.726;8.892;2023-04-07T00:24:58;96726.50;;;19.97;36.81
31595;BME280;18200;48.726;8.892;2023-04-07T00:28:58;96725.78;;;20.17;36.10
31595;BME280;18200;48.726;8.892;2023-04-07T00:32:59;96727.91;;;20.05;37.13
31595;BME280;18200;48.726;8.892;2023-04-07T00:36:59;96721.41;;;20.23;36.05
31595;BME280;18200;48.726;8.892;2023-04-07T00:40:59;96719.50;;;19.96;36.03
31595;BME280;18200;48.726;8.892;2023-04-07T00:45:00;96711.03;;;20.34;35.81
31595;BME280;18200;48.726;8.892;2023-04-07T00:49:01;96703.00;;;20.46;35.72
31595;BME280;18200;48.726;8.892;2023-04-07T00:53:01;96700.84;;;20.38;35.93
31595;BME280;18200;48.726;8.892;2023-04-07T00:57:02;96690.16;;;20.63;35.67
31595;BME280;18200;48.726;8.892;2023-04-07T01:01:14;96681.78;;;20.89;34.65
31595;BME280;18200;48.726;8.892;2023-04-07T01:05:22;96679.94;;;20.67;35.18
31595;BME280;18200;48.726;8.892;2023-04-07T01:09:30;96674.63;;;20.60;34.72
31595;BME280;18200;48.726;8.892;2023-04-07T01:13:36;96669.91;;;20.44;35.28
31595;BME280;18200;48.726;8.892;2023-04-07T01:17:58;96664.09;;;20.23;35.75
31595;BME280;18200;48.726;8.892;2023-04-07T01:22:00;96662.31;;;20.12;36.62
31595;BME280;18200;48.726;8.892;2023-04-07T01:26:22;96661.56;;;19.69;37.70
31595;BME280;18200;48.726;8.892;2023-04-07T01:30:27;96651.16;;;20.27;36.82
31595;BME280;18200;48.726;8.892;2023-04-07T01:34:30;96654.09;;;20.36;35.78
31595;BME280;18200;48.726;8.892;2023-04-07T01:38:32;96651.06;;;20.30;35.64
31595;BME280;18200;48.726;8.892;2023-04-07T01:42:33;96653.94;;;20.23;35.96
31595;BME280;18200;48.726;8.892;2023-04-07T01:46:34;96645.84;;;19.77;36.39
31595;BME280;18200;48.726;8.892;2023-04-07T01:50:35;96641.13;;;20.00;36.04
31595;BME280;18200;48.726;8.892;2023-04-07T01:54:38;96629.84;;;19.98;36.38
31595;BME280;18200;48.726;8.892;2023-04-07T01:58:38;96632.72;;;19.91;36.64
31595;BME280;18200;48.726;8.892;2023-04-07T02:02:44;96631.09;;;19.74;37.09
31595;BME280;18200;48.726;8.892;2023-04-07T02:06:52;96631.28;;;19.44;38.39
31595;BME280;18200;48.726;8.892;2023-04-07T02:11:00;96631.88;;;19.28;38.59
31595;BME280;18200;48.726;8.892;2023-04-07T02:15:07;96623.03;;;18.98;38.27
31595;BME280;18200;48.726;8.892;2023-04-07T02:19:08;96614.63;;;18.89;39.28
31595;BME280;18200;48.726;8.892;2023-04-07T02:23:09;96611.50;;;18.64;39.49
31595;BME280;18200;48.726;8.892;2023-04-07T02:27:09;96615.13;;;19.07;38.56
31595;BME280;18200;48.726;8.892;2023-04-07T02:31:10;96599.34;;;18.41;39.91
31595;BME280;18200;48.726;8.892;2023-04-07T02:35:13;96601.75;;;19.16;38.11
31595;BME280;18200;48.726;8.892;2023-04-07T02:39:13;96597.00;;;19.20;37.88
31595;BME280;18200;48.726;8.892;2023-04-07T02:43:14;96599.56;;;19.54;37.01
31595;BME280;18200;48.726;8.892;2023-04-07T02:47:16;96596.41;;;19.32;37.57
31595;BME280;18200;48.726;8.892;2023-04-07T02:51:17;96596.22;;;18.73;38.76
31595;BME280;18200;48.726;8.892;2023-04-07T02:55:17;96593.75;;;18.82;38.67
31595;BME280;18200;48.726;8.892;2023-04-07T02:59:18;96588.34;;;18.52;39.73
31595;BME280;18200;48.726;8.892;2023-04-07T03:03:18;96588.50;;;18.11;40.57
31595;BME280;18200;48.726;8.892;2023-04-07T03:07:32;96591.47;;;18.77;39.35
31595;BME280;18200;48.726;8.892;2023-04-07T03:11:34;96592.00;;;18.38;39.95
31595;BME280;18200;48.726;8.892;2023-04-07T03:15:35;96585.75;;;18.95;39.23
31595;BME280;18200;48.726;8.892;2023-04-07T03:19:35;96579.69;;;19.30;38.40
31595;BME280;18200;48.726;8.892;2023-04-07T03:23:36;96572.09;;;19.64;36.79
31595;BME280;18200;48.726;8.892;2023-04-07T03:27:36;96572.88;;;19.65;37.01
31595;BME280;18200;48.726;8.892;2023-04-07T03:31:37;96562.59;;;19.72;36.89
31595;BME280;18200;48.726;8.892;2023-04-07T03:35:37;96565.41;;;19.88;36.55
31595;BME280;18200;48.726;8.892;2023-04-07T03:39:37;96559.09;;;19.91;36.30
31595;BME280;18200;48.726;8.892;2023-04-07T03:43:53;96557.56;;;19.51;36.83
31595;BME280;18200;48.726;8.892;2023-04-07T03:47:54;96543.59;;;19.88;37.41
31595;BME280;18200;48.726;8.892;2023-04-07T03:51:55;96541.75;;;20.01;37.08
31595;BME280;18200;48.726;8.892;2023-04-07T03:55:57;96557.13;;;19.72;37.29
31595;BME280;18200;48.726;8.892;2023-04-07T04:00:14;96559.03;;;19.75;37.65
31595;BME280;18200;48.726;8.892;2023-04-07T04:04:30;96549.75;;;19.92;37.26
31595;BME280;18200;48.726;8.892;2023-04-07T04:08:31;96542.91;;;19.84;37.16
31595;BME280;18200;48.726;8.892;2023-04-07T04:12:31;96542.25;;;19.77;36.98
31595;BME280;18200;48.726;8.892;2023-04-07T04:16:38;96550.38;;;19.61;36.88
31595;BME280;18200;48.726;8.892;2023-04-07T04:20:47;96544.41;;;19.23;37.90
31595;BME280;18200;48.726;8.892;2023-04-07T04:24:48;96544.41;;;19.66;37.60
31595;BME280;18200;48.726;8.892;2023-04-07T04:28:48;96528.63;;;19.96;36.96
31595;BME280;18200;48.726;8.892;2023-04-07T04:32:51;96539.75;;;19.86;36.90
31595;BME280;18200;48.726;8.892;2023-04-07T04:36:58;96535.50;;;19.65;36.75
31595;BME280;18200;48.726;8.892;2023-04-07T04:40:58;96547.63;;;19.41;37.59
31595;BME280;18200;48.726;8.892;2023-04-07T04:45:03;96544.22;;;19.57;37.59
31595;BME280;18200;48.726;8.892;2023-04-07T04:49:05;96541.84;;;19.59;36.90
31595;BME280;18200;48.726;8.892;2023-04-07T04:53:08;96542.91;;;18.49;39.30
31595;BME280;18200;48.726;8.892;2023-04-07T04:57:16;96549.31;;;18.89;39.37
31595;BME280;18200;48.726;8.892;2023-04-07T05:01:17;96536.72;;;19.41;38.33
31595;BME280;18200;48.726;8.892;2023-04-07T05:05:26;96548.63;;;19.70;38.38
31595;BME280;18200;48.726;8.892;2023-04-07T05:09:28;96534.38;;;19.82;38.18
31595;BME280;18200;48.726;8.892;2023-04-07T05:13:29;96541.16;;;19.55;37.55
31595;BME280;18200;48.726;8.892;2023-04-07T05:17:32;96536.78;;;18.41;39.60
31595;BME280;18200;48.726;8.892;2023-04-07T05:21:34;96545.28;;;18.97;38.81
31595;BME280;18200;48.726;8.892;2023-04-07T05:25:37;96546.31;;;19.49;38.69
31595;BME280;18200;48.726;8.892;2023-04-07T05:29:39;96543.38;;;19.60;38.02
31595;BME280;18200;48.726;8.892;2023-04-07T05:33:43;96545.88;;;19.08;38.31
31595;BME280;18200;48.726;8.892;2023-04-07T05:37:44;96560.47;;;19.17;38.99
31595;BME280;18200;48.726;8.892;2023-04-07T05:41:45;96551.28;;;19.54;38.39
31595;BME280;18200;48.726;8.892;2023-04-07T05:45:47;96560.28;;;19.51;37.71
31595;BME280;18200;48.726;8.892;2023-04-07T05:49:48;96553.25;;;19.07;38.05
31595;BME280;18200;48.726;8.892;2023-04-07T05:53:48;96549.91;;;18.50;39.52
31595;BME280;18200;48.726;8.892;2023-04-07T05:57:50;96560.38;;;18.21;40.09
31595;BME280;18200;48.726;8.892;2023-04-07T06:01:54;96565.16;;;18.14;40.53
31595;BME280;18200;48.726;8.892;2023-04-07T06:05:56;96557.13;;;18.87;39.84
31595;BME280;18200;48.726;8.892;2023-04-07T06:09:57;96558.13;;;19.62;38.72
31595;BME280;18200;48.726;8.892;2023-04-07T06:13:59;96551.78;;;19.69;37.70
31595;BME280;18200;48.726;8.892;2023-04-07T06:17:59;96552.94;;;19.87;37.16
31595;BME280;18200;48.726;8.892;2023-04-07T06:22:00;96544.97;;;19.96;36.29
31595;BME280;18200;48.726;8.892;2023-04-07T06:26:00;96546.63;;;20.30;35.69
31595;BME280;18200;48.726;8.892;2023-04-07T06:30:03;96553.97;;;20.13;36.66
31595;BME280;18200;48.726;8.892;2023-04-07T06:34:03;96555.69;;;19.48;37.32
31595;BME280;18200;48.726;8.892;2023-04-07T06:38:04;96547.03;;;20.08;36.27
31595;BME280;18200;48.726;8.892;2023-04-07T06:42:05;96549.66;;;19.76;36.83
31595;BME280;18200;48.726;8.892;2023-04-07T06:46:10;96532.38;;;20.02;36.48
31595;BME280;18200;48.726;8.892;2023-04-07T06:50:11;96542.13;;;20.20;35.38
31595;BME280;18200;48.726;8.892;2023-04-07T06:54:11;96548.31;;;20.24;35.12
31595;BME280;18200;48.726;8.892;2023-04-07T06:58:13;96541.88;;;20.66;34.99
31595;BME280;18200;48.726;8.892;2023-04-07T07:02:13;96546.66;;;21.26;34.68
31595;BME280;18200;48.726;8.892;2023-04-07T07:06:13;96545.09;;;21.41;34.11
31595;BME280;18200;48.726;8.892;2023-04-07T07:10:14;96547.03;;;20.80;34.62
31595;BME280;18200;48.726;8.892;2023-04-07T07:14:15;96545.13;;;21.25;34.76
31595;BME280;18200;48.726;8.892;2023-04-07T07:18:16;96549.22;;;20.85;34.77
31595;BME280;18200;48.726;8.892;2023-04-07T07:22:16;96543.28;;;21.06;34.83
31595;BME280;18200;48.726;8.892;2023-04-07T07:26:17;96550.56;;;20.45;35.76
31595;BME280;18200;48.726;8.892;2023-04-07T07:30:19;96539.84;;;21.18;35.27
31595;BME280;18200;48.726;8.892;2023-04-07T07:34:20;96537.00;;;21.67;34.28
31595;BME280;18200;48.726;8.892;2023-04-07T07:38:20;96538.44;;;22.00;33.63
31595;BME280;18200;48.726;8.892;2023-04-07T07:42:21;96539.59;;;22.40;33.28
31595;BME280;18200;48.726;8.892;2023-04-07T07:46:22;96551.59;;;22.30;32.10
31595;BME280;18200;48.726;8.892;2023-04-07T07:50:25;96548.88;;;21.60;33.23
31595;BME280;18200;48.726;8.892;2023-04-07T07:54:25;96553.88;;;21.78;32.97
31595;BME280;18200;48.726;8.892;2023-04-07T07:58:25;96544.50;;;22.70;31.96
31595;BME280;18200;48.726;8.892;2023-04-07T08:02:26;96551.88;;;21.66;33.56
31595;BME280;18200;48.726;8.892;2023-04-07T08:06:30;96547.94;;;22.74;31.96
31595;BME280;18200;48.726;8.892;2023-04-07T08:10:30;96552.50;;;21.86;33.17
31595;BME280;18200;48.726;8.892;2023-04-07T08:14:31;96547.94;;;21.38;34.88
31595;BME280;18200;48.726;8.892;2023-04-07T08:18:31;96553.66;;;22.13;33.10
31595;BME280;18200;48.726;8.892;2023-04-07T08:22:31;96550.72;;;22.08;33.15
31595;BME280;18200;48.726;8.892;2023-04-07T08:26:32;96550.00;;;22.83;32.08
31595;BME280;18200;48.726;8.892;2023-04-07T08:30:32;96559.38;;;23.54;30.53
31595;BME280;18200;48.726;8.892;2023-04-07T08:34:32;96555.06;;;21.93;33.08
31595;BME280;18200;48.726;8.892;2023-04-07T08:38:33;96560.00;;;21.24;34.94
31595;BME280;18200;48.726;8.892;2023-04-07T08:42:34;96561.94;;;21.69;34.14
31595;BME280;18200;48.726;8.892;2023-04-07T08:46:38;96562.50;;;22.71;32.49
31595;BME280;18200;48.726;8.892;2023-04-07T08:50:42;96562.72;;;23.49;31.59
31595;BME280;18200;48.726;8.892;2023-04-07T08:54:43;96562.34;;;23.12;31.71
31595;BME280;18200;48.726;8.892;2023-04-07T08:58:47;96554.66;;;22.32;33.77
31595;BME280;18200;48.726;8.892;2023-04-07T09:02:49;96560.63;;;22.93;32.53
31595;BME280;18200;48.726;8.892;2023-04-07T09:06:50;96550.75;;;22.33;33.14
31595;BME280;18200;48.726;8.892;2023-04-07T09:10:51;96554.16;;;20.42;35.34
31595;BME280;18200;48.726;8.892;2023-04-07T09:14:52;96559.72;;;22.46;32.27
31595;BME280;18200;48.726;8.892;2023-04-07T09:18:53;96559.16;;;22.26;32.66
31595;BME280;18200;48.726;8.892;2023-04-07T09:22:53;96569.00;;;22.23;32.40
31595;BME280;18200;48.726;8.892;2023-04-07T09:27:14;96554.91;;;22.50;33.02
31595;BME280;18200;48.726;8.892;2023-04-07T09:31:16;96562.63;;;20.79;33.99
31595;BME280;18200;48.726;8.892;2023-04-07T09:35:16;96568.63;;;22.09;32.71
31595;BME280;18200;48.726;8.892;2023-04-07T09:39:17;96565.50;;;22.10;33.02
31595;BME280;18200;48.726;8.892;2023-04-07T09:43:18;96568.41;;;21.91;33.23
31595;BME280;18200;48.726;8.892;2023-04-07T09:47:25;96575.72;;;21.94;33.78
31595;BME280;18200;48.726;8.892;2023-04-07T09:51:28;96575.38;;;21.92;32.70
31595;BME280;18200;48.726;8.892;2023-04-07T09:55:29;96570.13;;;21.85;32.64
31595;BME280;18200;48.726;8.892;2023-04-07T09:59:32;96579.63;;;22.34;32.33
31595;BME280;18200;48.726;8.892;2023-04-07T10:03:33;96570.78;;;24.08;29.63
31595;BME280;18200;48.726;8.892;2023-04-07T10:07:34;96575.44;;;22.17;32.08
31595;BME280;18200;48.726;8.892;2023-04-07T10:11:34;96562.59;;;22.80;30.99
31595;BME280;18200;48.726;8.892;2023-04-07T10:15:36;96569.00;;;24.14;28.97
31595;BME280;18200;48.726;8.892;2023-04-07T10:19:37;96559.53;;;24.15;28.73
31595;BME280;18200;48.726;8.892;2023-04-07T10:23:53;96558.91;;;23.21;29.21
31595;BME280;18200;48.726;8.892;2023-04-07T10:27:59;96552.00;;;23.63;29.00
31595;BME280;18200;48.726;8.892;2023-04-07T10:32:02;96563.34;;;23.96;28.49
31595;BME280;18200;48.726;8.892;2023-04-07T10:36:05;96552.91;;;24.65;27.58
31595;BME280;18200;48.726;8.892;2023-04-07T10:48:37;96566.75;;;21.93;31.80
31595;BME280;18200;48.726;8.892;2023-04-07T10:52:37;96573.56;;;20.79;33.09
31595;BME280;18200;48.726;8.892;2023-04-07T10:57:07;96570.56;;;21.38;32.13
31595;BME280;18200;48.726;8.892;2023-04-07T11:05:19;96570.88;;;22.52;31.00
31595;BME280;18200;48.726;8.892;2023-04-07T11:09:20;96566.31;;;24.23;28.65
31595;BME280;18200;48.726;8.892;2023-04-07T11:13:21;96577.38;;;22.70;31.02
31595;BME280;18200;48.726;8.892;2023-04-07T11:17:22;96578.38;;;22.76;29.92
31595;BME280;18200;48.726;8.892;2023-04-07T11:21:22;96583.91;;;21.20;33.56
31595;BME280;18200;48.726;8.892;2023-04-07T11:25:23;96579.75;;;22.30;31.51
31595;BME280;18200;48.726;8.892;2023-04-07T11:29:28;96581.97;;;22.86;30.72
31595;BME280;18200;48.726;8.892;2023-04-07T11:33:30;96578.25;;;23.52;29.23
31595;BME280;18200;48.726;8.892;2023-04-07T11:37:31;96585.75;;;24.99;26.94
31595;BME280;18200;48.726;8.892;2023-04-07T11:41:32;96598.09;;;24.12;30.66
31595;BME280;18200;48.726;8.892;2023-04-07T11:45:32;96600.84;;;23.56;32.10
31595;BME280;18200;48.726;8.892;2023-04-07T11:49:32;96598.75;;;22.75;34.29
31595;BME280;18200;48.726;8.892;2023-04-07T11:53:35;96603.63;;;22.42;34.64
31595;BME280;18200;48.726;8.892;2023-04-07T11:57:37;96602.44;;;21.74;35.48
31595;BME280;18200;48.726;8.892;2023-04-07T12:01:40;96607.94;;;22.81;34.76
31595;BME280;18200;48.726;8.892;2023-04-07T12:05:44;96611.66;;;23.38;33.65
31595;BME280;18200;48.726;8.892;2023-04-07T12:09:44;96619.47;;;23.61;33.15
31595;BME280;18200;48.726;8.892;2023-04-07T12:13:46;96619.56;;;23.10;33.87
31595;BME280;18200;48.726;8.892;2023-04-07T12:17:47;96613.75;;;23.21;33.63
31595;BME280;18200;48.726;8.892;2023-04-07T12:21:48;96621.16;;;23.80;32.68
31595;BME280;18200;48.726;8.892;2023-04-07T12:25:48;96624.50;;;23.97;32.97
31595;BME280;18200;48.726;8.892;2023-04-07T12:29:48;96618.47;;;23.33;33.54
31595;BME280;18200;48.726;8.892;2023-04-07T12:33:49;96631.91;;;23.28;34.66
31595;BME280;18200;48.726;8.892;2023-04-07T12:37:49;96632.06;;;22.86;35.43
31595;BME280;18200;48.726;8.892;2023-04-07T12:41:52;96629.19;;;23.02;34.17
31595;BME280;18200;48.726;8.892;2023-04-07T12:45:52;96634.25;;;22.66;34.31
31595;BME280;18200;48.726;8.892;2023-04-07T12:49:53;96635.81;;;22.38;35.54
31595;BME280;18200;48.726;8.892;2023-04-07T12:53:53;96649.13;;;21.50;37.25
31595;BME280;18200;48.726;8.892;2023-04-07T12:57:53;96641.28;;;22.92;35.83
31595;BME280;18200;48.726;8.892;2023-04-07T13:01:54;96640.81;;;23.06;35.23
31595;BME280;18200;48.726;8.892;2023-04-07T13:05:55;96649.69;;;22.98;35.23
31595;BME280;18200;48.726;8.892;2023-04-07T13:09:55;96656.50;;;22.27;36.53
31595;BME280;18200;48.726;8.892;2023-04-07T13:13:56;96651.25;;;22.99;35.74
31595;BME280;18200;48.726;8.892;2023-04-07T13:17:56;96648.59;;;22.70;35.60
31595;BME280;18200;48.726;8.892;2023-04-07T13:21:57;96648.41;;;23.40;34.92
31595;BME280;18200;48.726;8.892;2023-04-07T13:25:57;96644.78;;;23.05;35.14
31595;BME280;18200;48.726;8.892;2023-04-07T13:29:57;96649.63;;;22.48;36.53
31595;BME280;18200;48.726;8.892;2023-04-07T13:33:58;96642.81;;;22.93;36.30
31595;BME280;18200;48.726;8.892;2023-04-07T13:37:58;96641.81;;;23.12;36.21
31595;BME280;18200;48.726;8.892;2023-04-07T13:41:59;96644.75;;;23.31;36.04
31595;BME280;18200;48.726;8.892;2023-04-07T13:46:00;96636.25;;;22.78;37.51
31595;BME280;18200;48.726;8.892;2023-04-07T13:50:01;96640.00;;;21.57;39.88
31595;BME280;18200;48.726;8.892;2023-04-07T13:54:01;96637.09;;;22.75;38.42
31595;BME280;18200;48.726;8.892;2023-04-07T13:58:01;96633.78;;;21.08;41.18
31595;BME280;18200;48.726;8.892;2023-04-07T14:02:02;96635.56;;;22.99;38.99
31595;BME280;18200;48.726;8.892;2023-04-07T14:06:03;96635.28;;;23.57;37.72
31595;BME280;18200;48.726;8.892;2023-04-07T14:10:03;96637.97;;;22.72;37.60
31595;BME280;18200;48.726;8.892;2023-04-07T14:14:04;96635.22;;;23.82;36.43
31595;BME280;18200;48.726;8.892;2023-04-07T14:18:05;96635.69;;;23.34;36.18
31595;BME280;18200;48.726;8.892;2023-04-07T14:22:05;96638.06;;;23.44;35.75
31595;BME280;18200;48.726;8.892;2023-04-07T14:26:09;96641.00;;;24.18;34.72
31595;BME280;18200;48.726;8.892;2023-04-07T14:30:10;96637.81;;;23.51;35.46
31595;BME280;18200;48.726;8.892;2023-04-07T14:34:10;96643.63;;;23.87;34.66
31595;BME280;18200;48.726;8.892;2023-04-07T14:38:11;96642.19;;;23.61;34.61
31595;BME280;18200;48.726;8.892;2023-04-07T14:42:11;96634.34;;;23.85;34.31
31595;BME280;18200;48.726;8.892;2023-04-07T14:46:12;96642.25;;;23.70;34.06
31595;BME280;18200;48.726;8.892;2023-04-07T14:50:14;96637.72;;;23.55;33.78
31595;BME280;18200;48.726;8.892;2023-04-07T14:54:14;96638.72;;;23.48;34.79
31595;BME280;18200;48.726;8.892;2023-04-07T14:58:14;96637.31;;;24.12;33.01
31595;BME280;18200;48.726;8.892;2023-04-07T15:02:14;96640.53;;;23.64;34.84
31595;BME280;18200;48.726;8.892;2023-04-07T15:06:15;96646.88;;;23.73;34.10
31595;BME280;18200;48.726;8.892;2023-04-07T15:10:16;96655.63;;;22.84;35.38
31595;BME280;18200;48.726;8.892;2023-04-07T15:14:17;96652.09;;;22.96;34.13
31595;BME280;18200;48.726;8.892;2023-04-07T15:18:17;96650.25;;;23.18;35.08
31595;BME280;18200;48.726;8.892;2023-04-07T15:22:18;96664.16;;;23.61;33.47
31595;BME280;18200;48.726;8.892;2023-04-07T15:26:18;96656.44;;;23.69;34.00
31595;BME280;18200;48.726;8.892;2023-04-07T15:30:19;96648.84;;;22.76;34.76
31595;BME280;18200;48.726;8.892;2023-04-07T15:34:19;96656.94;;;23.89;34.00
31595;BME280;18200;48.726;8.892;2023-04-07T15:38:19;96660.03;;;23.19;34.35
31595;BME280;18200;48.726;8.892;2023-04-07T15:42:20;96671.41;;;22.80;35.18
31595;BME280;18200;48.726;8.892;2023-04-07T15:46:20;96667.50;;;23.78;34.28
31595;BME280;18200;48.726;8.892;2023-04-07T15:50:21;96676.75;;;24.06;34.50
31595;BME280;18200;48.726;8.892;2023-04-07T15:54:21;96671.78;;;23.66;34.17
31595;BME280;18200;48.726;8.892;2023-04-07T15:58:21;96670.22;;;23.19;35.39
31595;BME280;18200;48.726;8.892;2023-04-07T16:02:22;96668.53;;;23.59;35.20
31595;BME280;18200;48.726;8.892;2023-04-07T16:06:22;96669.09;;;24.22;34.39
31595;BME280;18200;48.726;8.892;2023-04-07T16:10:23;96676.00;;;25.01;31.50
31595;BME280;18200;48.726;8.892;2023-04-07T16:14:23;96670.81;;;24.50;31.52
31595;BME280;18200;48.726;8.892;2023-04-07T16:18:28;96663.09;;;26.59;29.10
31595;BME280;18200;48.726;8.892;2023-04-07T16:22:29;96672.53;;;25.58;30.10
31595;BME280;18200;48.726;8.892;2023-04-07T16:26:29;96683.03;;;25.02;30.74
31595;BME280;18200;48.726;8.892;2023-04-07T16:30:30;96676.72;;;25.23;30.68
31595;BME280;18200;48.726;8.892;2023-04-07T16:34:30;96670.84;;;26.87;27.71
31595;BME280;18200;48.726;8.892;2023-04-07T16:38:31;96685.75;;;25.99;29.71
31595;BME280;18200;48.726;8.892;2023-04-07T16:42:32;96682.97;;;26.81;28.27
31595;BME280;18200;48.726;8.892;2023-04-07T16:46:33;96703.38;;;25.04;30.96
31595;BME280;18200;48.726;8.892;2023-04-07T16:50:33;96697.34;;;24.44;31.41
31595;BME280;18200;48.726;8.892;2023-04-07T16:54:33;96711.09;;;23.13;34.05
31595;BME280;18200;48.726;8.892;2023-04-07T16:58:35;96719.28;;;22.18;34.55
31595;BME280;18200;48.726;8.892;2023-04-07T17:02:35;96725.31;;;21.16;36.45
31595;BME280;18200;48.726;8.892;2023-04-07T17:06:35;96738.94;;;19.98;40.03
31595;BME280;18200;48.726;8.892;2023-04-07T17:10:36;96747.25;;;20.93;39.24
31595;BME280;18200;48.726;8.892;2023-04-07T17:14:36;96746.84;;;21.79;38.11
31595;BME280;18200;48.726;8.892;2023-04-07T17:18:37;96751.19;;;22.24;36.69
31595;BME280;18200;48.726;8.892;2023-04-07T17:22:37;96752.47;;;22.20;36.97
31595;BME280;18200;48.726;8.892;2023-04-07T17:26:37;96760.22;;;21.93;36.84
31595;BME280;18200;48.726;8.892;2023-04-07T17:30:38;96767.00;;;19.99;40.02
31595;BME280;18200;48.726;8.892;2023-04-07T17:34:38;96769.72;;;21.01;38.17
31595;BME280;18200;48.726;8.892;2023-04-07T17:38:39;96773.56;;;20.25;38.63
31595;BME280;18200;48.726;8.892;2023-04-07T17:42:39;96773.00;;;21.31;36.72
31595;BME280;18200;48.726;8.892;2023-04-07T17:46:40;96779.47;;;20.20;38.62
31595;BME280;18200;48.726;8.892;2023-04-07T17:50:40;96781.88;;;20.80;37.79
31595;BME280;18200;48.726;8.892;2023-04-07T17:54:41;96793.31;;;20.09;38.39
31595;BME280;18200;48.726;8.892;2023-04-07T17:58:42;96797.88;;;21.17;36.33
31595;BME280;18200;48.726;8.892;2023-04-07T18:02:42;96803.63;;;21.23;36.47
31595;BME280;18200;48.726;8.892;2023-04-07T18:06:43;96803.44;;;20.08;38.02
31595;BME280;18200;48.726;8.892;2023-04-07T18:10:44;96801.63;;;21.07;36.28
31595;BME280;18200;48.726;8.892;2023-04-07T18:14:44;96805.81;;;20.92;36.53
31595;BME280;18200;48.726;8.892;2023-04-07T18:18:45;96820.44;;;20.82;36.27
31595;BME280;18200;48.726;8.892;2023-04-07T18:22:45;96823.56;;;21.00;36.24
31595;BME280;18200;48.726;8.892;2023-04-07T18:26:46;96817.84;;;21.86;35.22
31595;BME280;18200;48.726;8.892;2023-04-07T18:30:46;96824.59;;;21.97;34.41
31595;BME280;18200;48.726;8.892;2023-04-07T18:34:47;96840.94;;;20.28;38.05
31595;BME280;18200;48.726;8.892;2023-04-07T18:38:47;96839.25;;;20.10;38.10
31595;BME280;18200;48.726;8.892;2023-04-07T18:42:48;96851.59;;;20.19;37.92
31595;BME280;18200;48.726;8.892;2023-04-07T18:46:48;96859.22;;;19.54;38.78
31595;BME280;18200;48.726;8.892;2023-04-07T18:50:53;96858.72;;;19.63;39.22
31595;BME280;18200;48.726;8.892;2023-04-07T18:54:54;96865.00;;;20.56;38.18
31595;BME280;18200;48.726;8.892;2023-04-07T18:58:55;96875.28;;;20.91;37.15
31595;BME280;18200;48.726;8.892;2023-04-07T19:02:55;96870.00;;;21.00;37.47
31595;BME280;18200;48.726;8.892;2023-04-07T19:06:55;96879.38;;;21.22;36.71
31595;BME280;18200;48.726;8.892;2023-04-07T19:10:56;96888.34;;;21.03;37.89
31595;BME280;18200;48.726;8.892;2023-04-07T19:14:56;96888.25;;;21.46;36.61
31595;BME280;18200;48.726;8.892;2023-04-07T19:18:57;96889.13;;;21.00;37.59
31595;BME280;18200;48.726;8.892;2023-04-07T19:22:57;96901.03;;;21.69;37.29
31595;BME280;18200;48.726;8.892;2023-04-07T19:26:58;96900.88;;;21.76;36.72
31595;BME280;18200;48.726;8.892;2023-04-07T19:30:58;96905.25;;;21.53;37.28
31595;BME280;18200;48.726;8.892;2023-04-07T19:34:58;96905.81;;;21.64;37.14
31595;BME280;18200;48.726;8.892;2023-04-07T19:38:59;96904.06;;;21.54;37.39
31595;BME280;18200;48.726;8.892;2023-04-07T19:43:00;96908.19;;;21.62;37.38
31595;BME280;18200;48.726;8.892;2023-04-07T19:47:00;96911.63;;;21.67;36.88
31595;BME280;18200;48.726;8.892;2023-04-07T19:51:00;96914.78;;;21.85;37.11
31595;BME280;18200;48.726;8.892;2023-04-07T19:55:01;96911.72;;;22.15;36.26
31595;BME280;18200;48.726;8.892;2023-04-07T19:59:02;96917.91;;;22.19;36.41
31595;BME280;18200;48.726;8.892;2023-04-07T20:03:03;96914.91;;;22.29;36.01
31595;BME280;18200;48.726;8.892;2023-04-07T20:07:03;96923.59;;;22.08;35.93
31595;BME280;18200;48.726;8.892;2023-04-07T20:11:04;96924.84;;;21.88;36.27
31595;BME280;18200;48.726;8.892;2023-04-07T20:15:07;96929.69;;;22.16;37.05
31595;BME280;18200;48.726;8.892;2023-04-07T20:19:08;96925.91;;;22.10;36.06
31595;BME280;18200;48.726;8.892;2023-04-07T20:23:08;96929.06;;;21.73;36.54
31595;BME280;18200;48.726;8.892;2023-04-07T20:27:08;96933.19;;;21.81;36.27
31595;BME280;18200;48.726;8.892;2023-04-07T20:31:09;96929.16;;;22.05;36.55
31595;BME280;18200;48.726;8.892;2023-04-07T20:35:10;96934.94;;;21.55;36.79
31595;BME280;18200;48.726;8.892;2023-04-07T20:39:10;96925.31;;;21.47;37.46
31595;BME280;18200;48.726;8.892;2023-04-07T20:43:11;96934.78;;;21.98;36.65
31595;BME280;18200;48.726;8.892;2023-04-07T20:47:12;96926.16;;;21.63;37.88
31595;BME280;18200;48.726;8.892;2023-04-07T20:51:16;96927.75;;;21.61;37.08
31595;BME280;18200;48.726;8.892;2023-04-07T20:55:22;96929.38;;;21.58;37.39
31595;BME280;18200;48.726;8.892;2023-04-07T20:59:23;96933.00;;;22.07;37.25
31595;BME280;18200;48.726;8.892;2023-04-07T21:03:24;96933.06;;;21.88;36.76
31595;BME280;18200;48.726;8.892;2023-04-07T21:07:25;96937.72;;;21.32;38.28
31595;BME280;18200;48.726;8.892;2023-04-07T21:11:25;96942.81;;;21.89;37.22
31595;BME280;18200;48.726;8.892;2023-04-07T21:15:26;96945.22;;;21.87;37.15
31595;BME280;18200;48.726;8.892;2023-04-07T21:19:27;96948.84;;;22.00;37.09
31595;BME280;18200;48.726;8.892;2023-04-07T21:23:27;96949.56;;;21.84;36.92
31595;BME280;18200;48.726;8.892;2023-04-07T21:27:28;96949.25;;;21.79;37.67
31595;BME280;18200;48.726;8.892;2023-04-07T21:31:28;96953.47;;;22.19;36.70